Low Land 5 — WDG8156 — position and weather

sailwx.info

Track history (hours):
 
Tides and Currents Weather Stations Pressure Air Temp Water Temp Dewpoint Dewpoint Depression Visibility Wind Speed Wind Dir Waves Ship Positions

Low Land 5

Owner: LOW LAND CONSTRUCTION CO. INC, THIBODAUX, LA. More information available from US FCC via Universal Licensing System and Coast Guard Vessel Documentation Center.

Last reported at 2018-Aug-10 23:21 UTC. Time now 2018-Aug-14 07:03 UTC.
Position N 29°36' W 090°40'.

Length 14 m.

Type: Tug. MMSI: 366842360.

Date/timePositionNaut miles runAvg speedWind from/ knotsBaromVisibWave heightAir tempDewpointWater temp
2018-Aug-10 23:21N 29°36' W 090°40'0 0.0
2018-Aug-10 23:01N 29°36' W 090°40'0 0.0
2018-Aug-10 22:31N 29°36' W 090°40'0 0.0
2018-Aug-10 22:01N 29°36' W 090°40'0 0.0
2018-Aug-10 21:30N 29°36' W 090°40'0 0.0
2018-Aug-10 21:01N 29°36' W 090°40'0 0.0
2018-Aug-10 20:30N 29°36' W 090°40'0 0.0
2018-Aug-10 20:00N 29°36' W 090°40'0 0.0
2018-Aug-10 19:31N 29°36' W 090°40'0 0.0
2018-Aug-10 19:01N 29°36' W 090°40'0 0.0
2018-Aug-10 18:31N 29°36' W 090°40'0 0.0
2018-Aug-10 18:01N 29°36' W 090°40'0 0.0
2018-Aug-10 17:30N 29°36' W 090°40'0 0.0
2018-Aug-10 17:01N 29°36' W 090°40'0 0.0
2018-Aug-10 16:30N 29°36' W 090°40'0 0.0
2018-Aug-10 16:01N 29°36' W 090°40'0 0.0
2018-Aug-10 15:30N 29°36' W 090°40'0 0.0
2018-Aug-10 14:59N 29°36' W 090°40'0 0.0
2018-Aug-10 14:31N 29°36' W 090°40'0 0.0
2018-Aug-10 14:01N 29°36' W 090°40'0 0.0
2018-Aug-10 13:30N 29°36' W 090°40'0 0.0
2018-Aug-10 13:00N 29°36' W 090°40'0 0.0
2018-Aug-10 12:29N 29°36' W 090°40'0 0.0
2018-Aug-10 12:01N 29°36' W 090°40'0 0.0
2018-Aug-10 11:31N 29°36' W 090°40'0 0.0
2018-Aug-10 10:58N 29°36' W 090°40'0 0.0
2018-Aug-10 10:30N 29°36' W 090°40'0 0.0
2018-Aug-10 10:00N 29°36' W 090°40'0 0.0
2018-Aug-10 09:30N 29°36' W 090°40'0 0.0
2018-Aug-10 09:00N 29°36' W 090°40'0 0.0
2018-Aug-10 08:28N 29°36' W 090°40'0 0.0
2018-Aug-10 08:00N 29°36' W 090°40'0 0.0
2018-Aug-10 07:31N 29°36' W 090°40'0 0.0
2018-Aug-10 07:01N 29°36' W 090°40'0 0.0
2018-Aug-10 06:30N 29°36' W 090°40'0 0.0
2018-Aug-10 06:01N 29°36' W 090°40'0 0.0
2018-Aug-10 05:29N 29°36' W 090°40'0 0.0
2018-Aug-10 05:00N 29°36' W 090°40'3 5.0
2018-Aug-10 04:30N 29°35' W 090°37'1 1.3
2018-Aug-10 03:59N 29°34' W 090°37'1 2.5
2018-Aug-10 03:31N 29°35' W 090°35'26 6.2
2018-Aug-09 23:12N 29°46' W 090°08'6 5.1
2018-Aug-09 22:04N 29°50' W 090°03'1 6.2
2018-Aug-09 21:55N 29°50' W 090°02'3 6.0
2018-Aug-09 21:28N 29°53' W 090°00'3 2.8
2018-Aug-09 20:14N 29°55' W 089°58'0 0.3
2018-Aug-09 20:00N 29°55' W 089°58'0 0.1
2018-Aug-09 19:26N 29°55' W 089°58'3 6.1
2018-Aug-09 19:00N 29°56' W 090°00'2 3.3
2018-Aug-09 18:22N 29°58' W 090°01'0 0.7
2018-Aug-09 18:00N 29°59' W 090°01'0 0.0
2018-Aug-09 17:30N 29°59' W 090°01'2 2.9
2018-Aug-09 16:54N 29°60' W 090°00'10 0.2
2018-Aug-07 22:16N 29°50' W 089°60'6 4.7
2018-Aug-07 21:05N 29°55' W 089°57'1 9.9
2018-Aug-07 21:00N 29°56' W 089°58'4 7.3
2018-Aug-07 20:30N 29°57' W 090°02'0 0.0
2018-Aug-07 20:00N 29°57' W 090°02'0 0.0
2018-Aug-07 19:31N 29°57' W 090°02'0 0.0
2018-Aug-07 19:00N 29°57' W 090°02'0 0.0
2018-Aug-07 18:31N 29°57' W 090°02'0 0.0
2018-Aug-07 18:00N 29°57' W 090°02'0 0.0
2018-Aug-07 17:31N 29°57' W 090°02'0 0.0
2018-Aug-07 17:00N 29°57' W 090°02'0 0.0
2018-Aug-07 16:31N 29°57' W 090°02'0 0.0
2018-Aug-07 16:00N 29°57' W 090°02'0 0.0
2018-Aug-07 15:31N 29°57' W 090°02'0 0.0
2018-Aug-07 15:01N 29°57' W 090°02'0 0.0
2018-Aug-07 14:30N 29°57' W 090°02'0 0.0
2018-Aug-07 14:00N 29°57' W 090°02'0 0.0
2018-Aug-07 13:31N 29°57' W 090°02'0 0.0
2018-Aug-07 13:01N 29°57' W 090°02'0 0.0
2018-Aug-07 12:31N 29°57' W 090°02'0 0.0
2018-Aug-07 12:01N 29°57' W 090°02'0 0.0
2018-Aug-07 11:31N 29°57' W 090°02'35 2.8
2018-Aug-06 22:59N 29°34' W 090°32'4 7.7
2018-Aug-06 22:30N 29°35' W 090°36'1 1.6
2018-Aug-06 22:01N 29°34' W 090°36'1 2.8
2018-Aug-06 21:30N 29°35' W 090°38'2 4.3
2018-Aug-06 21:01N 29°36' W 090°40'  
2018-Aug-03 15:15N 29°36' W 090°40'0 0.7
2018-Aug-03 14:59N 29°36' W 090°40'0 0.0
2018-Aug-03 14:30N 29°36' W 090°40'0 0.0
2018-Aug-03 14:00N 29°36' W 090°40'0 0.0
2018-Aug-03 02:15N 29°36' W 090°40'0 0.1
2018-Aug-03 01:09N 29°36' W 090°40'1 4.7
2018-Aug-03 01:00N 29°36' W 090°41'2 3.5
2018-Aug-03 00:30N 29°36' W 090°43'2 3.1
2018-Aug-03 00:01N 29°35' W 090°43'1 2.9
2018-Aug-02 23:30N 29°33' W 090°43'4 7.6
2018-Aug-02 23:00N 29°30' W 090°43'1 0.1
2018-Aug-02 01:40N 29°28' W 090°43'1 6.8
2018-Aug-02 01:29N 29°30' W 090°43'3 6.6
2018-Aug-02 01:00N 29°33' W 090°42'2 4.8
2018-Aug-02 00:30N 29°35' W 090°43'2 3.9
2018-Aug-02 00:00N 29°37' W 090°42'2 3.4
2018-Aug-01 23:30N 29°36' W 090°40'1 0.4
2018-Aug-01 22:01N 29°36' W 090°40'0 0.0
2018-Aug-01 21:57N 29°36' W 090°40'0 0.0
2018-Aug-01 20:15N 29°36' W 090°40'0 1.1
2018-Aug-01 20:00N 29°36' W 090°39'0 0.6
2018-Aug-01 19:30N 29°36' W 090°40'0 0.0
2018-Aug-01 19:00N 29°36' W 090°40'3 5.0
2018-Aug-01 18:30N 29°37' W 090°43'3 5.9
2018-Aug-01 18:00N 29°34' W 090°44'3 6.2
2018-Aug-01 17:29N 29°32' W 090°47'1 0.1
2018-Aug-01 06:24N 29°32' W 090°47'3 6.7
2018-Aug-01 06:01N 29°34' W 090°44'3 5.9
2018-Aug-01 05:30N 29°36' W 090°43'3 5.3
2018-Aug-01 05:00N 29°36' W 090°40'0 0.6
2018-Aug-01 04:30N 29°36' W 090°40'0 0.0
2018-Aug-01 04:00N 29°36' W 090°40'0 0.2
2018-Aug-01 03:30N 29°36' W 090°40'0 0.2
2018-Aug-01 02:59N 29°36' W 090°40'0 0.0
2018-Aug-01 02:28N 29°36' W 090°40'0 0.2
2018-Aug-01 01:54N 29°36' W 090°40'0 0.9
2018-Aug-01 01:31N 29°36' W 090°39'  
Track history (hours):
 
Tides and Currents Weather Stations Pressure Air Temp Water Temp Dewpoint Dewpoint Depression Visibility Wind Speed Wind Dir Waves Ship Positions

Low Land 5

Owner: LOW LAND CONSTRUCTION CO. INC, THIBODAUX, LA. More information available from US FCC via Universal Licensing System and Coast Guard Vessel Documentation Center.

Last reported at 2018-Aug-10 23:21 UTC. Time now 2018-Aug-14 07:03 UTC.
Position N 29°36' W 090°40'.

Length 14 m.

Type: Tug. MMSI: 366842360.

Date/timePositionNaut miles runAvg speedWind from/ knotsBaromVisibWave heightAir tempDewpointWater temp
2018-Aug-10 23:21N 29°36' W 090°40'0 0.0
2018-Aug-10 23:01N 29°36' W 090°40'0 0.0
2018-Aug-10 22:31N 29°36' W 090°40'0 0.0
2018-Aug-10 22:01N 29°36' W 090°40'0 0.0
2018-Aug-10 21:30N 29°36' W 090°40'0 0.0
2018-Aug-10 21:01N 29°36' W 090°40'0 0.0
2018-Aug-10 20:30N 29°36' W 090°40'0 0.0
2018-Aug-10 20:00N 29°36' W 090°40'0 0.0
2018-Aug-10 19:31N 29°36' W 090°40'0 0.0
2018-Aug-10 19:01N 29°36' W 090°40'0 0.0
2018-Aug-10 18:31N 29°36' W 090°40'0 0.0
2018-Aug-10 18:01N 29°36' W 090°40'0 0.0
2018-Aug-10 17:30N 29°36' W 090°40'0 0.0
2018-Aug-10 17:01N 29°36' W 090°40'0 0.0
2018-Aug-10 16:30N 29°36' W 090°40'0 0.0
2018-Aug-10 16:01N 29°36' W 090°40'0 0.0
2018-Aug-10 15:30N 29°36' W 090°40'0 0.0
2018-Aug-10 14:59N 29°36' W 090°40'0 0.0
2018-Aug-10 14:31N 29°36' W 090°40'0 0.0
2018-Aug-10 14:01N 29°36' W 090°40'0 0.0
2018-Aug-10 13:30N 29°36' W 090°40'0 0.0
2018-Aug-10 13:00N 29°36' W 090°40'0 0.0
2018-Aug-10 12:29N 29°36' W 090°40'0 0.0
2018-Aug-10 12:01N 29°36' W 090°40'0 0.0
2018-Aug-10 11:31N 29°36' W 090°40'0 0.0
2018-Aug-10 10:58N 29°36' W 090°40'0 0.0
2018-Aug-10 10:30N 29°36' W 090°40'0 0.0
2018-Aug-10 10:00N 29°36' W 090°40'0 0.0
2018-Aug-10 09:30N 29°36' W 090°40'0 0.0
2018-Aug-10 09:00N 29°36' W 090°40'0 0.0
2018-Aug-10 08:28N 29°36' W 090°40'0 0.0
2018-Aug-10 08:00N 29°36' W 090°40'0 0.0
2018-Aug-10 07:31N 29°36' W 090°40'0 0.0
2018-Aug-10 07:01N 29°36' W 090°40'0 0.0
2018-Aug-10 06:30N 29°36' W 090°40'0 0.0
2018-Aug-10 06:01N 29°36' W 090°40'0 0.0
2018-Aug-10 05:29N 29°36' W 090°40'0 0.0
2018-Aug-10 05:00N 29°36' W 090°40'3 5.0
2018-Aug-10 04:30N 29°35' W 090°37'1 1.3
2018-Aug-10 03:59N 29°34' W 090°37'1 2.5
2018-Aug-10 03:31N 29°35' W 090°35'26 6.2
2018-Aug-09 23:12N 29°46' W 090°08'6 5.1
2018-Aug-09 22:04N 29°50' W 090°03'1 6.2
2018-Aug-09 21:55N 29°50' W 090°02'3 6.0
2018-Aug-09 21:28N 29°53' W 090°00'3 2.8
2018-Aug-09 20:14N 29°55' W 089°58'0 0.3
2018-Aug-09 20:00N 29°55' W 089°58'0 0.1
2018-Aug-09 19:26N 29°55' W 089°58'3 6.1
2018-Aug-09 19:00N 29°56' W 090°00'2 3.3
2018-Aug-09 18:22N 29°58' W 090°01'0 0.7
2018-Aug-09 18:00N 29°59' W 090°01'0 0.0
2018-Aug-09 17:30N 29°59' W 090°01'2 2.9
2018-Aug-09 16:54N 29°60' W 090°00'10 0.2
2018-Aug-07 22:16N 29°50' W 089°60'6 4.7
2018-Aug-07 21:05N 29°55' W 089°57'1 9.9
2018-Aug-07 21:00N 29°56' W 089°58'4 7.3
2018-Aug-07 20:30N 29°57' W 090°02'0 0.0
2018-Aug-07 20:00N 29°57' W 090°02'0 0.0
2018-Aug-07 19:31N 29°57' W 090°02'0 0.0
2018-Aug-07 19:00N 29°57' W 090°02'0 0.0
2018-Aug-07 18:31N 29°57' W 090°02'0 0.0
2018-Aug-07 18:00N 29°57' W 090°02'0 0.0
2018-Aug-07 17:31N 29°57' W 090°02'0 0.0
2018-Aug-07 17:00N 29°57' W 090°02'0 0.0
2018-Aug-07 16:31N 29°57' W 090°02'0 0.0
2018-Aug-07 16:00N 29°57' W 090°02'0 0.0
2018-Aug-07 15:31N 29°57' W 090°02'0 0.0
2018-Aug-07 15:01N 29°57' W 090°02'0 0.0
2018-Aug-07 14:30N 29°57' W 090°02'0 0.0
2018-Aug-07 14:00N 29°57' W 090°02'0 0.0
2018-Aug-07 13:31N 29°57' W 090°02'0 0.0
2018-Aug-07 13:01N 29°57' W 090°02'0 0.0
2018-Aug-07 12:31N 29°57' W 090°02'0 0.0
2018-Aug-07 12:01N 29°57' W 090°02'0 0.0
2018-Aug-07 11:31N 29°57' W 090°02'35 2.8
2018-Aug-06 22:59N 29°34' W 090°32'4 7.7
2018-Aug-06 22:30N 29°35' W 090°36'1 1.6
2018-Aug-06 22:01N 29°34' W 090°36'1 2.8
2018-Aug-06 21:30N 29°35' W 090°38'2 4.3
2018-Aug-06 21:01N 29°36' W 090°40'  
2018-Aug-03 15:15N 29°36' W 090°40'0 0.7
2018-Aug-03 14:59N 29°36' W 090°40'0 0.0
2018-Aug-03 14:30N 29°36' W 090°40'0 0.0
2018-Aug-03 14:00N 29°36' W 090°40'0 0.0
2018-Aug-03 02:15N 29°36' W 090°40'0 0.1
2018-Aug-03 01:09N 29°36' W 090°40'1 4.7
2018-Aug-03 01:00N 29°36' W 090°41'2 3.5
2018-Aug-03 00:30N 29°36' W 090°43'2 3.1
2018-Aug-03 00:01N 29°35' W 090°43'1 2.9
2018-Aug-02 23:30N 29°33' W 090°43'4 7.6
2018-Aug-02 23:00N 29°30' W 090°43'1 0.1
2018-Aug-02 01:40N 29°28' W 090°43'1 6.8
2018-Aug-02 01:29N 29°30' W 090°43'3 6.6
2018-Aug-02 01:00N 29°33' W 090°42'2 4.8
2018-Aug-02 00:30N 29°35' W 090°43'2 3.9
2018-Aug-02 00:00N 29°37' W 090°42'2 3.4
2018-Aug-01 23:30N 29°36' W 090°40'1 0.4
2018-Aug-01 22:01N 29°36' W 090°40'0 0.0
2018-Aug-01 21:57N 29°36' W 090°40'0 0.0
2018-Aug-01 20:15N 29°36' W 090°40'0 1.1
2018-Aug-01 20:00N 29°36' W 090°39'0 0.6
2018-Aug-01 19:30N 29°36' W 090°40'0 0.0
2018-Aug-01 19:00N 29°36' W 090°40'3 5.0
2018-Aug-01 18:30N 29°37' W 090°43'3 5.9
2018-Aug-01 18:00N 29°34' W 090°44'3 6.2
2018-Aug-01 17:29N 29°32' W 090°47'1 0.1
2018-Aug-01 06:24N 29°32' W 090°47'3 6.7
2018-Aug-01 06:01N 29°34' W 090°44'3 5.9
2018-Aug-01 05:30N 29°36' W 090°43'3 5.3
2018-Aug-01 05:00N 29°36' W 090°40'0 0.6
2018-Aug-01 04:30N 29°36' W 090°40'0 0.0
2018-Aug-01 04:00N 29°36' W 090°40'0 0.2
2018-Aug-01 03:30N 29°36' W 090°40'0 0.2
2018-Aug-01 02:59N 29°36' W 090°40'0 0.0
2018-Aug-01 02:28N 29°36' W 090°40'0 0.2
2018-Aug-01 01:54N 29°36' W 090°40'0 0.9
2018-Aug-01 01:31N 29°36' W 090°39'  

Dump ship's entire track history